createdAt,value
2023-02-11T00:02:16.531Z,101759.09
2023-02-11T00:04:45.137Z,101753.53
2023-02-11T00:07:13.732Z,101741.40
2023-02-11T00:09:42.613Z,101734.02
2023-02-11T00:12:11.100Z,101726.81
2023-02-11T00:14:39.890Z,101722.58
2023-02-11T00:17:08.688Z,101711.33
2023-02-11T00:19:37.576Z,101712.41
2023-02-11T00:22:06.857Z,101713.54
2023-02-11T00:24:36.997Z,101714.45
2023-02-11T00:27:05.660Z,101711.25
2023-02-11T00:29:34.359Z,101708.09
2023-02-11T00:32:05.890Z,101705.43
2023-02-11T00:34:35.607Z,101702.87
2023-02-11T00:37:04.849Z,101701.20
2023-02-11T00:39:33.307Z,101702.75
2023-02-11T00:42:01.815Z,101699.77
2023-02-11T00:44:30.575Z,101689.93
2023-02-11T00:46:59.549Z,101682.77
2023-02-11T00:49:28.449Z,101678.89
2023-02-11T00:51:57.122Z,101675.83
2023-02-11T00:54:26.894Z,101676.59
2023-02-11T00:56:57.247Z,101674.25
2023-02-11T00:59:26.348Z,101672.76
2023-02-11T01:01:55.149Z,101671.04
2023-02-11T01:04:23.720Z,101671.77
2023-02-11T01:06:54.085Z,101667.27
2023-02-11T01:09:22.629Z,101666.46
2023-02-11T01:11:51.417Z,101662.54
2023-02-11T01:14:20.113Z,101659.77
2023-02-11T01:16:49.008Z,101655.45
2023-02-11T01:19:17.681Z,101657.64
2023-02-11T01:21:47.716Z,101650.90
2023-02-11T01:24:16.480Z,101655.11
2023-02-11T01:26:46.028Z,101648.79
2023-02-11T01:29:14.594Z,101645.10
2023-02-11T01:31:43.366Z,101636.31
2023-02-11T01:34:12.250Z,101634.45
2023-02-11T01:36:41.667Z,101626.98
2023-02-11T01:39:10.556Z,101629.61
2023-02-11T01:41:40.253Z,101627.62
2023-02-11T01:44:33.936Z,101623.58
2023-02-11T01:47:05.183Z,101614.82
2023-02-11T01:50:00.175Z,101605.55
2023-02-11T01:52:30.800Z,101604.21
2023-02-11T01:55:24.167Z,101596.31
2023-02-11T01:57:56.767Z,101594.55
2023-02-11T02:00:38.452Z,101590.02
2023-02-11T02:03:16.870Z,101583.67
2023-02-11T02:05:53.252Z,101575.19
2023-02-11T02:08:41.771Z,101586.02
2023-02-11T02:11:10.747Z,101589.48
2023-02-11T02:13:39.554Z,101582.39
2023-02-11T02:16:13.489Z,101576.81
2023-02-11T02:19:00.684Z,101575.54
2023-02-11T02:21:45.831Z,101567.27
2023-02-11T02:24:25.295Z,101565.96
2023-02-11T02:27:04.822Z,101558.98
2023-02-11T02:30:01.245Z,101550.17
2023-02-11T02:32:48.892Z,101549.30
2023-02-11T02:35:49.024Z,101546.97
2023-02-11T02:38:25.567Z,101539.33
2023-02-11T02:41:07.155Z,101529.61
2023-02-11T02:43:37.983Z,101532.35
2023-02-11T02:46:27.757Z,101530.64
2023-02-11T02:48:57.490Z,101526.50
2023-02-11T02:51:49.618Z,101521.73
2023-02-11T02:54:37.560Z,101515.61
2023-02-11T02:57:27.752Z,101508.25
2023-02-11T03:00:19.772Z,101503.25
2023-02-11T03:03:14.478Z,101497.80
2023-02-11T03:05:55.774Z,101503.13
2023-02-11T03:08:25.991Z,101495.31
2023-02-11T03:10:55.786Z,101485.25
2023-02-11T03:13:27.804Z,101484.07
2023-02-11T03:15:58.119Z,101480.52
2023-02-11T03:18:28.370Z,101470.17
2023-02-11T03:20:58.035Z,101463.99
2023-02-11T03:23:33.881Z,101464.10
2023-02-11T03:26:19.354Z,101472.06
2023-02-11T03:29:05.340Z,101479.33
2023-02-11T03:31:59.480Z,101467.61
2023-02-11T03:34:44.380Z,101465.98
2023-02-11T03:37:20.736Z,101464.94
2023-02-11T03:39:57.013Z,101464.00
2023-02-11T03:42:28.552Z,101472.39
2023-02-11T03:45:02.146Z,101475.41
2023-02-11T03:47:32.428Z,101472.23
2023-02-11T03:50:04.785Z,101473.75
2023-02-11T03:52:34.862Z,101472.27
2023-02-11T03:55:15.739Z,101470.45
2023-02-11T03:57:44.738Z,101464.61
2023-02-11T04:00:14.372Z,101460.76
2023-02-11T04:02:43.052Z,101459.98
2023-02-11T04:05:14.722Z,101456.83
2023-02-11T04:07:43.259Z,101456.09
2023-02-11T04:10:12.811Z,101463.85
2023-02-11T04:12:41.351Z,101460.40
2023-02-11T04:15:10.455Z,101452.12
2023-02-11T04:17:42.367Z,101445.60
2023-02-11T04:20:11.908Z,101433.90
2023-02-11T04:22:40.738Z,101435.05
2023-02-11T04:25:10.957Z,101431.32
2023-02-11T04:27:39.408Z,101421.96
2023-02-11T04:30:09.396Z,101414.15
2023-02-11T04:32:37.908Z,101409.27
2023-02-11T04:35:08.143Z,101411.74
2023-02-11T04:37:36.605Z,101400.50
2023-02-11T04:40:05.796Z,101394.95
2023-02-11T04:42:34.496Z,101395.54
2023-02-11T04:45:03.455Z,101392.38
2023-02-11T04:47:31.976Z,101394.13
2023-02-11T04:50:00.755Z,101403.34
2023-02-11T04:52:29.632Z,101400.32
2023-02-11T04:54:58.215Z,101404.27
2023-02-11T04:57:26.901Z,101402.48
2023-02-11T04:59:55.685Z,101395.80
2023-02-11T05:02:24.278Z,101399.67
2023-02-11T05:04:53.166Z,101399.27
2023-02-11T05:07:21.966Z,101393.58
2023-02-11T05:09:50.538Z,101391.42
2023-02-11T05:12:19.222Z,101387.12
2023-02-11T05:14:48.222Z,101383.35
2023-02-11T05:17:16.825Z,101379.47
2023-02-11T05:19:45.491Z,101373.07
2023-02-11T05:22:15.006Z,101365.73
2023-02-11T05:24:43.662Z,101362.14
2023-02-11T05:27:12.568Z,101359.92
2023-02-11T05:29:41.443Z,101353.59
2023-02-11T05:32:10.028Z,101348.73
2023-02-11T05:34:38.724Z,101347.40
2023-02-11T05:37:07.437Z,101352.07
2023-02-11T05:39:36.203Z,101351.09
2023-02-11T05:42:05.216Z,101348.47
2023-02-11T05:44:33.678Z,101348.48
2023-02-11T05:47:02.347Z,101344.58
2023-02-11T05:49:31.346Z,101340.23
2023-02-11T05:52:00.123Z,101333.81
2023-02-11T05:54:28.615Z,101349.73
2023-02-11T05:56:57.287Z,101356.36
2023-02-11T05:59:26.692Z,101351.63
2023-02-11T06:01:55.286Z,101356.83
2023-02-11T06:04:23.965Z,101354.42
2023-02-11T06:06:52.765Z,101349.15
2023-02-11T06:09:21.560Z,101347.16
2023-02-11T06:11:51.464Z,101343.88
2023-02-11T06:14:20.151Z,101341.46
2023-02-11T06:16:48.944Z,101336.30
2023-02-11T06:19:17.823Z,101336.36
2023-02-11T06:21:46.307Z,101340.21
2023-02-11T06:24:16.269Z,101337.27
2023-02-11T06:26:44.891Z,101334.06
2023-02-11T06:29:14.403Z,101332.96
2023-02-11T06:31:42.941Z,101335.86
2023-02-11T06:34:11.785Z,101332.24
2023-02-11T06:36:41.375Z,101335.52
2023-02-11T06:39:12.489Z,101331.29
2023-02-11T06:41:41.214Z,101333.73
2023-02-11T06:44:09.685Z,101335.61
2023-02-11T06:46:38.440Z,101337.66
2023-02-11T06:49:07.266Z,101341.48
2023-02-11T06:51:36.264Z,101339.91
2023-02-11T06:54:05.728Z,101337.27
2023-02-11T06:56:35.204Z,101336.46
2023-02-11T06:59:03.844Z,101337.80
2023-02-11T07:01:32.608Z,101332.45
2023-02-11T07:04:01.327Z,101326.71
2023-02-11T07:06:29.802Z,101328.77
2023-02-11T07:08:58.600Z,101326.88
2023-02-11T07:11:29.444Z,101327.17
2023-02-11T07:14:02.167Z,101325.89
2023-02-11T07:16:31.130Z,101325.03
2023-02-11T07:19:00.007Z,101321.13
2023-02-11T07:21:28.678Z,101313.52
2023-02-11T07:23:57.355Z,101311.91
2023-02-11T07:26:29.521Z,101310.55
2023-02-11T07:28:58.107Z,101302.73
2023-02-11T07:31:28.551Z,101301.98
2023-02-11T07:34:00.242Z,101297.39
2023-02-11T07:36:30.729Z,101294.33
2023-02-11T07:39:00.555Z,101299.14
2023-02-11T07:41:29.233Z,101297.34
2023-02-11T07:43:57.791Z,101290.70
2023-02-11T07:46:28.487Z,101293.73
2023-02-11T07:48:57.214Z,101300.42
2023-02-11T07:51:30.103Z,101301.27
2023-02-11T07:54:00.177Z,101299.52
2023-02-11T07:56:29.347Z,101297.11
2023-02-11T07:59:01.998Z,101293.63
2023-02-11T08:01:31.195Z,101302.27
2023-02-11T08:04:01.130Z,101304.48
2023-02-11T08:06:32.365Z,101304.00
2023-02-11T08:09:06.461Z,101308.64
2023-02-11T08:11:35.163Z,101313.50
2023-02-11T08:14:03.857Z,101313.88
2023-02-11T08:16:34.623Z,101318.59
2023-02-11T08:19:06.416Z,101325.75
2023-02-11T08:21:35.114Z,101332.38
2023-02-11T08:24:04.764Z,101327.91
2023-02-11T08:26:35.324Z,101324.27
2023-02-11T08:29:09.377Z,101318.21
2023-02-11T08:31:41.064Z,101319.34
2023-02-11T08:34:11.849Z,101323.50
2023-02-11T08:36:42.883Z,101321.44
2023-02-11T08:39:19.613Z,101330.88
2023-02-11T08:41:51.670Z,101330.08
2023-02-11T08:44:22.164Z,101331.44
2023-02-11T08:46:52.332Z,101340.48
2023-02-11T08:49:21.571Z,101330.39
2023-02-11T08:51:50.670Z,101321.83
2023-02-11T08:54:19.366Z,101313.08
2023-02-11T08:56:53.478Z,101318.11
2023-02-11T08:59:23.157Z,101317.43
2023-02-11T09:01:55.458Z,101311.63
2023-02-11T09:04:25.517Z,101316.08
2023-02-11T09:06:54.165Z,101309.05
2023-02-11T09:09:23.473Z,101300.29
2023-02-11T09:11:52.020Z,101297.85
2023-02-11T09:14:22.979Z,101297.63
2023-02-11T09:16:52.214Z,101292.95
2023-02-11T09:19:21.784Z,101296.73
2023-02-11T09:21:50.797Z,101296.41
2023-02-11T09:24:19.873Z,101289.55
2023-02-11T09:26:50.524Z,101284.38
2023-02-11T09:29:19.375Z,101280.73
2023-02-11T09:31:48.178Z,101268.98
2023-02-11T09:34:16.860Z,101257.89
2023-02-11T09:36:45.532Z,101263.13
2023-02-11T09:39:17.806Z,101255.73
2023-02-11T09:41:56.320Z,101245.86
2023-02-11T09:44:30.286Z,101242.37
2023-02-11T09:47:06.100Z,101238.40
2023-02-11T09:49:50.134Z,101234.05
2023-02-11T09:52:29.048Z,101231.70
2023-02-11T09:55:22.416Z,101228.75
2023-02-11T09:57:51.308Z,101230.13
2023-02-11T10:00:31.075Z,101226.35
2023-02-11T10:02:59.742Z,101221.85
2023-02-11T10:05:52.253Z,101216.67
2023-02-11T10:08:42.521Z,101216.95
2023-02-11T10:11:48.544Z,101226.61
2023-02-11T10:15:04.837Z,101226.94
2023-02-11T10:17:37.308Z,101217.64
2023-02-11T10:20:25.355Z,101207.42
2023-02-11T10:22:56.078Z,101203.56
2023-02-11T10:25:35.470Z,101204.87
2023-02-11T10:28:20.376Z,101211.23
2023-02-11T10:30:52.392Z,101220.95
2023-02-11T10:33:28.859Z,101212.73
2023-02-11T10:35:57.312Z,101202.67
2023-02-11T10:38:26.159Z,101190.41
2023-02-11T10:40:54.678Z,101187.13
2023-02-11T10:43:27.744Z,101190.34
2023-02-11T10:45:57.265Z,101191.91
2023-02-11T10:48:50.956Z,101195.27
2023-02-11T10:51:35.686Z,101195.04
2023-02-11T10:54:04.591Z,101185.89
2023-02-11T10:56:36.578Z,101189.61
2023-02-11T10:59:21.145Z,101194.56
2023-02-11T11:05:22.848Z,101202.95
2023-02-11T11:07:56.870Z,101202.12
2023-02-11T11:10:47.494Z,101206.20
2023-02-11T11:13:33.540Z,101214.85
2023-02-11T11:16:14.252Z,101205.23
2023-02-11T11:18:45.722Z,101211.14
2023-02-11T11:21:24.934Z,101221.88
2023-02-11T11:24:02.349Z,101220.17
2023-02-11T11:26:43.343Z,101205.58
2023-02-11T11:29:21.203Z,101200.91
2023-02-11T11:32:04.964Z,101201.42
2023-02-11T11:34:42.328Z,101206.08
2023-02-11T11:37:24.542Z,101206.91
2023-02-11T11:40:21.373Z,101197.67
2023-02-11T11:43:23.392Z,101198.65
2023-02-11T11:46:00.255Z,101181.93
2023-02-11T11:48:41.039Z,101176.34
2023-02-11T11:51:14.270Z,101170.64
2023-02-11T11:53:59.849Z,101167.23
2023-02-11T11:56:34.608Z,101176.90
2023-02-11T11:59:14.434Z,101171.43
2023-02-11T12:01:52.363Z,101180.38
2023-02-11T12:04:40.979Z,101182.36
2023-02-11T12:07:31.378Z,101174.80
2023-02-11T12:10:18.519Z,101165.96
2023-02-11T12:12:56.855Z,101175.52
2023-02-11T12:15:34.499Z,101175.74
2023-02-11T12:18:21.611Z,101165.90
2023-02-11T12:20:53.174Z,101162.70
2023-02-11T12:23:46.739Z,101153.61
2023-02-11T12:26:22.601Z,101147.46
2023-02-11T12:29:32.560Z,101147.75
2023-02-11T12:32:30.959Z,101150.55
2023-02-11T12:35:24.084Z,101135.32
2023-02-11T12:38:22.063Z,101135.36
2023-02-11T12:41:16.282Z,101152.20
2023-02-11T12:43:45.744Z,101155.27
2023-02-11T12:46:29.289Z,101143.48
2023-02-11T12:49:03.199Z,101136.98
2023-02-11T12:51:42.901Z,101138.26
2023-02-11T12:54:40.794Z,101131.67
2023-02-11T12:57:21.680Z,101125.91
2023-02-11T13:00:15.962Z,101117.46
2023-02-11T13:03:10.445Z,101115.58
2023-02-11T13:06:10.482Z,101112.58
2023-02-11T13:08:46.790Z,101120.02
2023-02-11T13:11:23.727Z,101118.39
2023-02-11T13:13:57.722Z,101120.31
2023-02-11T13:16:30.060Z,101124.36
2023-02-11T13:19:18.535Z,101130.81
2023-02-11T13:22:03.320Z,101129.37
2023-02-11T13:24:44.805Z,101120.39
2023-02-11T13:27:52.184Z,101116.46
2023-02-11T13:30:35.963Z,101116.19
2023-02-11T13:33:07.169Z,101120.42
2023-02-11T13:35:41.088Z,101126.69
2023-02-11T13:38:20.515Z,101135.05
2023-02-11T13:41:15.370Z,101126.73
2023-02-11T13:43:45.494Z,101123.36
2023-02-11T13:46:16.229Z,101126.42
2023-02-11T13:48:53.630Z,101120.05
2023-02-11T13:51:49.087Z,101119.96
2023-02-11T13:54:29.801Z,101112.51
2023-02-11T13:57:21.055Z,101111.94
2023-02-11T13:59:55.480Z,101108.16
2023-02-11T14:02:51.778Z,101105.42
2023-02-11T14:05:41.869Z,101107.23
2023-02-11T14:08:29.936Z,101107.81
2023-02-11T14:11:25.896Z,101108.94
2023-02-11T14:13:55.599Z,101104.13
2023-02-11T14:16:38.004Z,101118.99
2023-02-11T14:19:09.407Z,101115.86
2023-02-11T14:21:41.382Z,101125.41
2023-02-11T14:24:13.761Z,101118.64
2023-02-11T14:27:00.151Z,101116.59
2023-02-11T14:29:35.617Z,101120.33
2023-02-11T14:32:38.500Z,101122.66
2023-02-11T14:35:13.505Z,101129.61
2023-02-11T14:38:05.862Z,101129.75
2023-02-11T14:40:53.356Z,101141.14
2023-02-11T14:43:29.100Z,101133.86
2023-02-11T14:45:59.597Z,101141.67
2023-02-11T14:48:33.206Z,101149.52
2023-02-11T14:51:18.140Z,101150.35
2023-02-11T14:53:50.736Z,101156.60
2023-02-11T14:56:34.756Z,101159.17
2023-02-11T14:59:04.982Z,101162.44
2023-02-11T15:01:38.293Z,101168.13
2023-02-11T15:04:32.014Z,101168.48
2023-02-11T15:07:07.170Z,101171.59
2023-02-11T15:09:47.673Z,101164.79
2023-02-11T15:12:24.602Z,101172.85
2023-02-11T15:14:59.395Z,101174.52
2023-02-11T15:17:32.964Z,101176.98
2023-02-11T15:20:03.711Z,101179.39
2023-02-11T15:22:37.901Z,101184.83
2023-02-11T15:25:15.505Z,101184.98
2023-02-11T15:28:13.561Z,101189.77
2023-02-11T15:30:42.982Z,101194.02
2023-02-11T15:33:26.263Z,101195.15
2023-02-11T15:35:57.186Z,101196.03
2023-02-11T15:38:30.685Z,101201.58
2023-02-11T15:41:13.348Z,101199.15
2023-02-11T15:43:52.230Z,101201.67
2023-02-11T15:46:24.213Z,101209.85
2023-02-11T15:48:56.249Z,101205.70
2023-02-11T15:51:36.253Z,101207.55
2023-02-11T15:54:11.296Z,101208.93
2023-02-11T15:56:45.264Z,101208.05
2023-02-11T15:59:27.098Z,101211.24
2023-02-11T16:01:59.323Z,101213.70
2023-02-11T16:04:29.120Z,101218.61
2023-02-11T16:06:59.813Z,101214.29
2023-02-11T16:09:35.896Z,101216.88
2023-02-11T16:12:28.112Z,101215.13
2023-02-11T16:15:00.962Z,101217.67
2023-02-11T16:17:33.025Z,101218.45
2023-02-11T16:20:05.610Z,101216.43
2023-02-11T16:22:39.012Z,101217.66
2023-02-11T16:25:24.984Z,101212.23
2023-02-11T16:27:56.206Z,101208.52
2023-02-11T16:30:38.640Z,101212.05
2023-02-11T16:33:12.220Z,101210.17
2023-02-11T16:35:42.995Z,101200.26
2023-02-11T16:38:13.764Z,101197.45
2023-02-11T16:40:46.428Z,101212.89
2023-02-11T16:43:25.113Z,101228.83
2023-02-11T16:45:54.829Z,101227.89
2023-02-11T16:48:26.556Z,101232.59
2023-02-11T16:51:00.480Z,101236.34
2023-02-11T16:53:30.894Z,101241.26
2023-02-11T16:56:07.160Z,101251.29
2023-02-11T16:58:38.085Z,101249.86
2023-02-11T17:01:10.582Z,101255.71
2023-02-11T17:03:44.452Z,101258.98
2023-02-11T17:06:14.885Z,101261.59
2023-02-11T17:08:46.013Z,101260.77
2023-02-11T17:11:18.190Z,101272.21
2023-02-11T17:13:48.872Z,101273.61
2023-02-11T17:16:21.946Z,101272.13
2023-02-11T17:18:52.238Z,101279.50
2023-02-11T17:21:23.893Z,101286.85
2023-02-11T17:23:54.743Z,101291.98
2023-02-11T17:26:27.482Z,101302.91
2023-02-11T17:29:01.556Z,101299.78
2023-02-11T17:31:31.637Z,101298.86
2023-02-11T17:34:01.714Z,101297.20
2023-02-11T17:36:36.316Z,101302.38
2023-02-11T17:39:08.303Z,101306.38
2023-02-11T17:41:42.040Z,101305.11
2023-02-11T17:44:17.306Z,101307.93
2023-02-11T17:46:50.391Z,101312.83
2023-02-11T17:49:21.347Z,101324.42
2023-02-11T17:51:53.532Z,101330.59
2023-02-11T17:54:24.368Z,101335.91
2023-02-11T17:56:58.711Z,101337.38
2023-02-11T17:59:36.765Z,101338.61
2023-02-11T18:02:08.464Z,101345.15
2023-02-11T18:07:25.805Z,101349.19
2023-02-11T18:09:58.247Z,101345.61
2023-02-11T18:12:28.570Z,101340.50
2023-02-11T18:14:59.288Z,101339.77
2023-02-11T18:17:29.685Z,101339.95
2023-02-11T18:19:59.437Z,101343.63
2023-02-11T18:22:33.975Z,101347.27
2023-02-11T18:25:05.687Z,101344.35
2023-02-11T18:27:37.582Z,101345.86
2023-02-11T18:30:09.151Z,101347.52
2023-02-11T18:32:40.699Z,101350.13
2023-02-11T18:35:14.946Z,101355.31
2023-02-11T18:37:45.639Z,101358.13
2023-02-11T18:40:16.404Z,101351.16
2023-02-11T18:42:49.835Z,101350.83
2023-02-11T18:45:23.416Z,101357.08
2023-02-11T18:47:53.912Z,101360.90
2023-02-11T18:50:24.630Z,101360.88
2023-02-11T18:52:55.249Z,101367.28
2023-02-11T18:55:26.918Z,101357.16
2023-02-11T18:57:57.832Z,101356.52
2023-02-11T19:00:32.501Z,101357.89
2023-02-11T19:03:03.333Z,101358.55
2023-02-11T19:05:49.844Z,101358.11
2023-02-11T19:08:24.954Z,101359.69
2023-02-11T19:10:57.506Z,101361.30
2023-02-11T19:13:27.874Z,101370.13
2023-02-11T19:15:58.895Z,101374.45
2023-02-11T19:18:30.240Z,101383.88
2023-02-11T19:21:09.139Z,101375.08
2023-02-11T19:23:41.663Z,101366.95
2023-02-11T19:26:12.781Z,101372.92
2023-02-11T19:28:49.048Z,101376.01
2023-02-11T19:31:20.748Z,101383.14
2023-02-11T19:33:53.730Z,101389.22
2023-02-11T19:36:24.958Z,101388.85
2023-02-11T19:38:55.015Z,101390.89
2023-02-11T19:41:27.673Z,101399.34
2023-02-11T19:43:58.154Z,101396.20
2023-02-11T19:46:31.479Z,101393.30
2023-02-11T19:49:02.952Z,101387.67
2023-02-11T19:51:46.528Z,101389.99
2023-02-11T19:54:24.110Z,101393.87
2023-02-11T19:56:58.770Z,101389.95
2023-02-11T19:59:29.725Z,101397.87
2023-02-11T20:02:02.786Z,101400.20
2023-02-11T20:04:34.436Z,101399.46
2023-02-11T20:07:06.331Z,101401.19
2023-02-11T20:09:37.256Z,101409.09
2023-02-11T20:12:08.373Z,101409.29
2023-02-11T20:14:39.468Z,101413.44
2023-02-11T20:17:09.882Z,101422.58
2023-02-11T20:19:40.690Z,101423.27
2023-02-11T20:22:12.195Z,101419.67
2023-02-11T20:24:45.971Z,101421.27
2023-02-11T20:27:17.330Z,101424.10
2023-02-11T20:29:49.747Z,101431.48
2023-02-11T20:32:23.178Z,101442.33
2023-02-11T20:34:57.767Z,101438.36
2023-02-11T20:37:29.446Z,101440.32
2023-02-11T20:40:00.853Z,101441.27
2023-02-11T20:42:31.420Z,101446.38
2023-02-11T20:45:05.604Z,101445.79
2023-02-11T20:47:38.815Z,101449.82
2023-02-11T20:50:12.252Z,101451.17
2023-02-11T20:52:44.397Z,101453.02
2023-02-11T20:55:16.366Z,101462.85
2023-02-11T20:57:49.792Z,101464.52
2023-02-11T21:00:23.638Z,101470.64
2023-02-11T21:02:55.418Z,101473.46
2023-02-11T21:05:27.901Z,101475.02
2023-02-11T21:07:58.833Z,101475.45
2023-02-11T21:10:31.709Z,101485.80
2023-02-11T21:13:04.401Z,101491.97
2023-02-11T21:15:38.010Z,101496.05
2023-02-11T21:18:09.519Z,101502.66
2023-02-11T21:20:40.672Z,101507.86
2023-02-11T21:23:11.817Z,101507.73
2023-02-11T21:25:42.072Z,101509.95
2023-02-11T21:28:13.629Z,101512.42
2023-02-11T21:30:44.031Z,101512.84
2023-02-11T21:33:13.857Z,101516.84
2023-02-11T21:35:43.459Z,101516.41
2023-02-11T21:38:15.447Z,101521.61
2023-02-11T21:40:45.994Z,101523.60
2023-02-11T21:43:16.605Z,101525.36
2023-02-11T21:45:49.910Z,101529.59
2023-02-11T21:48:20.727Z,101537.06
2023-02-11T21:50:51.522Z,101545.10
2023-02-11T21:53:20.785Z,101545.11
2023-02-11T21:55:51.781Z,101549.45
2023-02-11T21:58:21.278Z,101552.61
2023-02-11T22:00:53.330Z,101548.89
2023-02-11T22:03:22.136Z,101553.30
2023-02-11T22:05:54.335Z,101555.34
2023-02-11T22:08:24.919Z,101559.11
2023-02-11T22:10:54.372Z,101564.10
2023-02-11T22:13:22.999Z,101563.15
2023-02-11T22:15:59.938Z,101569.84
2023-02-11T22:18:30.553Z,101565.50
2023-02-11T22:21:04.223Z,101572.41
2023-02-11T22:23:36.685Z,101573.27
2023-02-11T22:26:08.340Z,101578.73
2023-02-11T22:28:39.318Z,101588.08
2023-02-11T22:31:12.295Z,101594.45
2023-02-11T22:33:41.475Z,101599.14
2023-02-11T22:36:17.573Z,101603.34
2023-02-11T22:38:46.418Z,101608.33
2023-02-11T22:41:15.307Z,101606.38
2023-02-11T22:43:44.601Z,101607.90
2023-02-11T22:46:16.261Z,101607.27
2023-02-11T22:48:45.435Z,101602.70
2023-02-11T22:51:17.084Z,101610.86
2023-02-11T22:53:50.299Z,101610.91
2023-02-11T22:56:19.382Z,101609.52
2023-02-11T22:58:49.015Z,101614.95
2023-02-11T23:01:18.655Z,101622.45
2023-02-11T23:03:47.505Z,101614.34
2023-02-11T23:06:16.906Z,101608.90
2023-02-11T23:08:45.699Z,101606.95
2023-02-11T23:11:20.635Z,101604.13
2023-02-11T23:13:51.239Z,101608.58
2023-02-11T23:16:23.353Z,101610.61
2023-02-11T23:18:53.259Z,101610.61
2023-02-11T23:21:24.402Z,101607.02
2023-02-11T23:23:58.294Z,101618.94
2023-02-11T23:26:27.882Z,101616.41
2023-02-11T23:28:58.479Z,101618.52
2023-02-11T23:31:30.810Z,101621.88
2023-02-11T23:34:00.277Z,101623.02
2023-02-11T23:36:29.188Z,101626.05
2023-02-11T23:38:57.989Z,101633.84
2023-02-11T23:41:26.643Z,101638.54
2023-02-11T23:43:58.238Z,101641.41
2023-02-11T23:46:27.835Z,101645.98
2023-02-11T23:48:56.509Z,101651.82
2023-02-11T23:51:25.617Z,101654.84
2023-02-11T23:53:56.386Z,101651.13
2023-02-11T23:56:28.588Z,101647.20
2023-02-11T23:58:59.870Z,101647.53
